Time;durP1;ratioP1;P1;durP2;ratioP2;P2;SDS_P1;SDS_P2;PMS_P1;PMS_P2;Temp;Humidity;BMP_temperature;BMP_pressure;BME280_temperature;BME280_humidity;BME280_pressure;Samples;Min_cycle;Max_cycle;Signal;HPM_P1;HPM_P2
2021/09/17 00:01:22;;;;;;;23.47;15.17;;;17.40;99.90;;;;;;4433081;28;659923;-68
2021/09/17 00:04:09;;;;;;;27.87;15.23;;;17.30;99.90;;;;;;4410209;28;659973;-68
2021/09/17 00:06:57;;;;;;;32.43;16.43;;;17.40;99.90;;;;;;4414918;28;658608;-68
2021/09/17 00:09:45;;;;;;;33.30;19.50;;;17.40;99.90;;;;;;4432644;28;659996;-68
2021/09/17 00:12:33;;;;;;;34.37;18.20;;;17.30;99.90;;;;;;4413967;28;658229;-68
2021/09/17 00:15:21;;;;;;;30.80;17.87;;;17.30;99.90;;;;;;4432934;28;658803;-68
2021/09/17 00:18:10;;;;;;;25.70;16.63;;;17.40;99.90;;;;;;4413952;28;658409;-68
2021/09/17 00:20:58;;;;;;;28.30;16.70;;;17.40;99.90;;;;;;4412353;28;658544;-68
2021/09/17 00:23:45;;;;;;;29.13;17.57;;;17.40;99.90;;;;;;4432324;28;659593;-68
2021/09/17 00:26:33;;;;;;;38.37;19.20;;;17.40;99.90;;;;;;4409865;28;659137;-68
2021/09/17 00:29:21;;;;;;;30.73;17.93;;;17.40;99.90;;;;;;4432361;28;658794;-68
2021/09/17 00:32:09;;;;;;;33.97;18.33;;;17.40;99.90;;;;;;4408719;28;659695;-68
2021/09/17 00:34:59;;;;;;;29.67;17.80;;;17.40;99.90;;;;;;4429006;28;658307;-68
2021/09/17 00:37:46;;;;;;;37.43;19.63;;;17.40;99.90;;;;;;4432529;28;658600;-68
2021/09/17 00:40:34;;;;;;;36.73;19.73;;;17.50;99.90;;;;;;4413263;28;658998;-68
2021/09/17 00:43:22;;;;;;;36.10;18.50;;;17.40;99.90;;;;;;4413361;28;658897;-68
2021/09/17 00:46:10;;;;;;;29.57;17.43;;;17.40;99.90;;;;;;4435165;28;659599;-68
2021/09/17 00:48:58;;;;;;;36.73;18.73;;;17.40;99.90;;;;;;4413656;28;658645;-68
2021/09/17 00:51:47;;;;;;;37.67;19.07;;;17.40;99.90;;;;;;4432051;28;659352;-68
2021/09/17 00:54:35;;;;;;;41.07;20.67;;;17.40;99.90;;;;;;4409462;28;659688;-68
2021/09/17 00:57:23;;;;;;;41.97;21.10;;;17.50;99.90;;;;;;4409522;28;658541;-68
2021/09/17 01:00:12;;;;;;;40.13;21.43;;;17.50;99.90;;;;;;4432317;28;658135;-68
2021/09/17 01:03:00;;;;;;;40.40;22.50;;;17.40;99.90;;;;;;4408663;28;659442;-68
2021/09/17 01:05:47;;;;;;;36.17;19.80;;;17.40;99.90;;;;;;4413191;28;659391;-68
2021/09/17 01:08:36;;;;;;;36.83;20.37;;;17.40;99.90;;;;;;4431786;28;659475;-68
2021/09/17 01:11:24;;;;;;;45.67;21.00;;;17.40;99.90;;;;;;4409308;28;659969;-68
2021/09/17 01:14:12;;;;;;;40.83;22.53;;;17.30;99.90;;;;;;4412940;28;658552;-68
2021/09/17 01:17:00;;;;;;;43.17;23.00;;;17.30;99.90;;;;;;4431648;28;659581;-68
2021/09/17 01:19:48;;;;;;;45.63;23.65;;;17.30;99.90;;;;;;4409431;28;658651;-68
2021/09/17 01:22:37;;;;;;;44.53;25.37;;;17.30;99.90;;;;;;4431718;28;658346;-68
2021/09/17 01:25:25;;;;;;;49.13;26.07;;;17.30;99.90;;;;;;4409021;28;659148;-68
2021/09/17 01:28:13;;;;;;;49.00;26.27;;;17.30;99.90;;;;;;4412777;28;658663;-68
2021/09/17 01:31:01;;;;;;;50.97;27.73;;;17.30;99.90;;;;;;4431890;28;659336;-68
2021/09/17 01:33:48;;;;;;;47.50;26.33;;;17.30;99.90;;;;;;4412759;28;659138;-68
2021/09/17 01:36:36;;;;;;;57.03;28.17;;;17.30;99.90;;;;;;4431423;28;659099;-68
2021/09/17 01:39:26;;;;;;;48.47;26.20;;;17.30;99.90;;;;;;4412641;28;659003;-68
2021/09/17 01:42:13;;;;;;;45.93;26.30;;;17.30;99.90;;;;;;4412722;28;659594;-68
2021/09/17 01:45:01;;;;;;;45.37;25.60;;;17.20;99.90;;;;;;4431255;28;658670;-68
2021/09/17 01:47:49;;;;;;;44.63;24.40;;;17.20;99.90;;;;;;4408509;28;660183;-68
2021/09/17 01:50:36;;;;;;;42.80;25.70;;;17.20;99.90;;;;;;4431438;28;658843;-68
2021/09/17 01:53:24;;;;;;;38.97;24.20;;;17.20;99.90;;;;;;4412420;28;659694;-68
2021/09/17 01:56:14;;;;;;;42.30;24.00;;;17.10;99.90;;;;;;4422278;28;658684;-68
2021/09/17 01:59:01;;;;;;;42.10;25.17;;;17.10;99.90;;;;;;4431537;28;658833;-68
2021/09/17 02:01:49;;;;;;;40.90;23.73;;;17.10;99.90;;;;;;4412323;28;659526;-68
2021/09/17 02:04:37;;;;;;;38.87;23.07;;;17.10;99.90;;;;;;4423072;28;659086;-68
2021/09/17 02:07:25;;;;;;;41.73;22.87;;;17.00;99.90;;;;;;4430532;28;659972;-68
2021/09/17 02:10:13;;;;;;;43.17;23.50;;;17.00;99.90;;;;;;4411761;28;659371;-68
2021/09/17 02:13:02;;;;;;;39.47;22.13;;;17.00;99.90;;;;;;4430945;28;658891;-68
2021/09/17 02:15:52;;;;;;;38.13;22.77;;;16.90;99.90;;;;;;4406687;28;658478;-68
2021/09/17 02:18:40;;;;;;;39.10;22.20;;;16.90;99.90;;;;;;4408366;28;659350;-68
2021/09/17 02:21:28;;;;;;;39.03;20.80;;;16.80;99.90;;;;;;4412143;28;658818;-68
2021/09/17 02:24:15;;;;;;;36.87;20.83;;;16.80;99.90;;;;;;4430983;28;658777;-69
2021/09/17 02:27:03;;;;;;;35.10;21.10;;;16.70;99.90;;;;;;4408653;28;658456;-68
2021/09/17 02:29:53;;;;;;;34.37;20.07;;;16.70;99.90;;;;;;4430563;28;658165;-68
2021/09/17 02:32:41;;;;;;;34.93;21.17;;;16.60;99.90;;;;;;4408345;28;659472;-68
2021/09/17 02:35:28;;;;;;;40.10;21.30;;;16.60;99.90;;;;;;4412110;28;658970;-68
2021/09/17 02:38:17;;;;;;;32.13;20.23;;;16.50;99.90;;;;;;4431129;28;658919;-68
2021/09/17 02:41:05;;;;;;;36.33;19.67;;;16.50;99.90;;;;;;4407845;28;659269;-68
2021/09/17 02:43:53;;;;;;;36.17;19.23;;;16.40;99.90;;;;;;4408134;28;658240;-68
2021/09/17 02:46:42;;;;;;;32.07;18.20;;;16.30;99.90;;;;;;4424804;28;658144;-68
2021/09/17 02:49:33;;;;;;;29.43;18.40;;;16.30;99.90;;;;;;4400584;28;659959;-68
2021/09/17 02:52:21;;;;;;;31.00;17.33;;;16.20;99.90;;;;;;4407673;28;658225;-69
2021/09/17 02:55:10;;;;;;;29.00;17.33;;;16.20;99.90;;;;;;4411399;28;659757;-69
2021/09/17 02:57:58;;;;;;;31.13;17.93;;;16.20;99.90;;;;;;4414633;28;658368;-68
2021/09/17 03:00:46;;;;;;;28.20;17.73;;;16.20;99.90;;;;;;4438457;28;658369;-68
2021/09/17 03:03:35;;;;;;;28.57;18.10;;;16.20;99.90;;;;;;4415281;28;659272;-69
2021/09/17 03:06:23;;;;;;;27.30;17.17;;;16.20;99.90;;;;;;4414029;28;658774;-69
2021/09/17 03:09:11;;;;;;;26.20;17.17;;;16.10;99.90;;;;;;4433795;28;658252;-68
2021/09/17 03:11:59;;;;;;;26.73;17.30;;;16.10;99.90;;;;;;4409618;28;659555;-68
2021/09/17 03:14:47;;;;;;;24.53;15.27;;;16.00;99.90;;;;;;4433198;28;658535;-68
2021/09/17 03:17:35;;;;;;;28.83;17.23;;;16.00;99.90;;;;;;4436211;28;658774;-68
2021/09/17 03:20:24;;;;;;;24.30;16.00;;;15.90;99.90;;;;;;4414595;28;658985;-68
2021/09/17 03:23:12;;;;;;;25.37;15.60;;;15.80;99.90;;;;;;4424644;28;658602;-68
2021/09/17 03:26:00;;;;;;;20.40;13.60;;;15.70;99.90;;;;;;4433309;28;660039;-68
2021/09/17 03:28:48;;;;;;;22.03;14.67;;;15.60;99.90;;;;;;4414508;28;658840;-68
2021/09/17 03:31:36;;;;;;;22.80;14.87;;;15.50;99.90;;;;;;4427217;28;659616;-68
2021/09/17 03:34:23;;;;;;;21.83;14.37;;;15.50;99.90;;;;;;4414994;28;658602;-68
2021/09/17 03:37:13;;;;;;;19.02;12.43;;;15.40;99.90;;;;;;4433368;28;658584;-68
2021/09/17 03:40:01;;;;;;;18.70;10.37;;;15.30;99.90;;;;;;4410346;28;658783;-71
2021/09/17 03:42:48;;;;;;;16.03;9.80;;;15.20;99.90;;;;;;4414355;28;658996;-71
2021/09/17 03:45:37;;;;;;;11.87;8.50;;;15.10;99.90;;;;;;4434392;28;657874;-70
2021/09/17 03:48:25;;;;;;;14.40;7.67;;;14.90;99.90;;;;;;4415855;28;658476;-71
2021/09/17 03:51:12;;;;;;;10.27;7.70;;;14.80;99.90;;;;;;4415251;28;657686;-71
2021/09/17 03:54:02;;;;;;;9.77;7.23;;;14.60;99.90;;;;;;4438171;28;659136;-71
2021/09/17 03:56:49;;;;;;;9.37;6.60;;;14.60;99.90;;;;;;4412711;28;657865;-71
2021/09/17 03:59:37;;;;;;;11.57;7.50;;;14.50;99.90;;;;;;4416926;28;656539;-71
2021/09/17 04:02:36;;;;;;;11.40;7.60;;;14.50;99.90;;;;;;4434264;28;658906;-70
2021/09/17 04:05:27;;;;;;;9.67;7.47;;;14.40;99.90;;;;;;4415353;28;657284;-71
2021/09/17 04:08:20;;;;;;;10.20;7.40;;;14.40;99.90;;;;;;4411605;28;657005;-71
2021/09/17 04:11:15;;;;;;;11.27;7.13;;;14.30;99.90;;;;;;4377193;28;658605;-70
2021/09/17 04:14:08;;;;;;;14.83;7.27;;;14.30;99.90;;;;;;4373883;28;658772;-70
2021/09/17 04:16:58;;;;;;;13.83;8.47;;;14.20;99.90;;;;;;4388846;28;658052;-71
2021/09/17 04:19:46;;;;;;;14.47;8.80;;;14.20;99.90;;;;;;4388019;28;658127;-71
2021/09/17 04:22:39;;;;;;;12.07;8.27;;;14.20;99.90;;;;;;4396969;28;657831;-71
2021/09/17 04:25:30;;;;;;;15.60;9.30;;;14.20;99.90;;;;;;4373752;28;657499;-70
2021/09/17 04:28:22;;;;;;;14.80;8.50;;;14.20;99.90;;;;;;4396507;28;657769;-70
2021/09/17 04:31:10;;;;;;;12.60;8.80;;;14.20;99.90;;;;;;4392733;28;658735;-70
2021/09/17 04:33:58;;;;;;;12.30;8.73;;;14.20;99.90;;;;;;4396584;28;657585;-70
2021/09/17 04:36:45;;;;;;;13.53;9.17;;;14.20;99.90;;;;;;4415513;28;657822;-71
2021/09/17 04:39:33;;;;;;;14.60;9.13;;;14.20;99.90;;;;;;4396244;28;657620;-70
2021/09/17 04:42:21;;;;;;;12.00;8.67;;;14.20;99.90;;;;;;4415078;28;658209;-70
2021/09/17 04:45:11;;;;;;;16.27;8.50;;;14.20;99.90;;;;;;4392228;28;658458;-70
2021/09/17 04:47:59;;;;;;;15.00;9.90;;;14.10;99.90;;;;;;4392480;28;658695;-71
2021/09/17 04:50:47;;;;;;;12.90;9.03;;;14.10;99.90;;;;;;4398055;28;657683;-71
2021/09/17 04:53:35;;;;;;;13.23;7.97;;;14.10;99.90;;;;;;4418997;28;658489;-70
2021/09/17 04:57:01;;;;;;;13.67;9.27;;;14.10;99.90;;;;;;4395698;28;657701;-68
2021/09/17 04:59:48;;;;;;;13.90;8.10;;;14.10;99.90;;;;;;4395821;28;657652;-70
2021/09/17 05:03:11;;;;;;;15.55;9.00;;;14.10;99.90;;;;;;4414254;28;658032;-71
2021/09/17 05:05:59;;;;;;;12.90;8.53;;;14.10;99.90;;;;;;4369273;28;658258;-70
2021/09/17 05:08:47;;;;;;;10.30;7.20;;;14.10;99.90;;;;;;4413907;28;658056;-71
2021/09/17 05:11:36;;;;;;;11.00;7.90;;;14.10;99.90;;;;;;4426174;28;658469;-70
2021/09/17 05:14:23;;;;;;;8.77;6.43;;;14.10;99.90;;;;;;4409973;28;657596;-71
2021/09/17 05:17:11;;;;;;;8.67;6.70;;;14.10;99.90;;;;;;4434115;28;656753;-71
2021/09/17 05:20:01;;;;;;;8.60;6.17;;;14.10;99.90;;;;;;4415199;28;657481;-71
2021/09/17 05:22:48;;;;;;;6.80;5.87;;;14.10;99.90;;;;;;4411997;28;656099;-70
2021/09/17 05:25:36;;;;;;;7.47;5.73;;;14.10;99.90;;;;;;4433875;28;657206;-71
2021/09/17 05:28:24;;;;;;;8.10;5.60;;;14.10;99.90;;;;;;4411238;28;658006;-71
2021/09/17 05:31:12;;;;;;;8.90;5.60;;;14.00;99.90;;;;;;4429742;28;657162;-70
2021/09/17 05:34:00;;;;;;;6.27;5.07;;;14.00;99.90;;;;;;4434186;28;657707;-70
2021/09/17 05:36:53;;;;;;;7.20;5.40;;;14.10;99.90;;;;;;4415209;28;656808;-70
2021/09/17 05:39:41;;;;;;;4.33;3.37;;;14.00;99.90;;;;;;4411112;28;656585;-71
2021/09/17 05:42:28;;;;;;;4.37;3.30;;;14.00;99.90;;;;;;4415257;28;656217;-70
2021/09/17 05:45:16;;;;;;;5.40;2.47;;;13.80;99.90;;;;;;4433258;28;656722;-70
2021/09/17 05:48:04;;;;;;;4.67;2.20;;;13.70;99.90;;;;;;4410949;28;657983;-70
2021/09/17 05:50:52;;;;;;;5.60;2.60;;;13.60;99.90;;;;;;4419136;28;657081;-70
2021/09/17 05:53:42;;;;;;;3.43;2.20;;;13.60;99.90;;;;;;4437853;28;657650;-71
2021/09/17 05:56:29;;;;;;;5.43;2.57;;;13.50;99.90;;;;;;4410738;28;657362;-70
2021/09/17 05:59:17;;;;;;;5.77;3.20;;;13.50;99.90;;;;;;4414605;28;657034;-70
2021/09/17 06:02:08;;;;;;;5.03;2.63;;;13.40;99.90;;;;;;4433414;28;657610;-70
2021/09/17 06:04:55;;;;;;;5.35;3.33;;;13.40;99.90;;;;;;4407825;28;656940;-70
2021/09/17 06:07:43;;;;;;;9.60;5.03;;;13.30;99.90;;;;;;4406020;28;657243;-70
2021/09/17 06:10:33;;;;;;;7.07;2.70;;;13.30;99.90;;;;;;4426675;28;656358;-70
2021/09/17 06:13:21;;;;;;;7.37;3.03;;;13.30;99.90;;;;;;4414741;28;656916;-70
2021/09/17 06:16:11;;;;;;;8.07;2.20;;;13.30;99.90;;;;;;4414488;28;656449;-69
2021/09/17 06:19:02;;;;;;;8.67;4.60;;;13.20;99.90;;;;;;4410769;28;657049;-70
2021/09/17 06:21:50;;;;;;;5.73;3.10;;;13.20;99.90;;;;;;4410657;28;657537;-70
2021/09/17 06:24:39;;;;;;;5.90;2.80;;;13.20;99.90;;;;;;4414524;28;657042;-70
2021/09/17 06:27:28;;;;;;;6.03;2.33;;;13.10;99.90;;;;;;4419254;28;656489;-70
2021/09/17 06:30:16;;;;;;;4.23;2.20;;;13.10;99.90;;;;;;4432817;28;656106;-70
2021/09/17 06:33:07;;;;;;;5.50;2.50;;;13.20;99.90;;;;;;4410379;28;657832;-71
2021/09/17 06:36:03;;;;;;;4.43;2.23;;;13.10;99.90;;;;;;4410648;28;656806;-70
2021/09/17 06:38:55;;;;;;;3.87;2.17;;;13.10;99.90;;;;;;4409642;28;657129;-71
2021/09/17 06:41:48;;;;;;;4.53;2.10;;;13.20;99.90;;;;;;4389588;28;657264;-70
2021/09/17 06:44:47;;;;;;;2.73;2.00;;;13.10;99.90;;;;;;4403862;28;656605;-70
2021/09/17 06:47:46;;;;;;;4.93;2.03;;;13.10;99.90;;;;;;4387277;28;658208;-70
2021/09/17 06:50:41;;;;;;;3.70;2.17;;;13.10;99.90;;;;;;4380754;28;656919;-71
2021/09/17 06:53:34;;;;;;;4.63;2.50;;;13.10;99.90;;;;;;4387527;28;657875;-70
2021/09/17 06:56:23;;;;;;;5.40;3.10;;;13.10;99.90;;;;;;4402356;28;657334;-70
2021/09/17 06:59:12;;;;;;;4.80;2.70;;;13.10;99.90;;;;;;4433121;28;657277;-70
2021/09/17 07:02:12;;;;;;;4.38;2.78;;;13.10;99.90;;;;;;4409871;28;657275;-70
2021/09/17 07:04:59;;;;;;;4.17;3.40;;;13.10;99.90;;;;;;4380758;28;656878;-70
2021/09/17 07:07:47;;;;;;;4.80;3.10;;;13.10;99.90;;;;;;4414055;28;656668;-70
2021/09/17 07:10:37;;;;;;;6.70;3.30;;;13.20;99.90;;;;;;4432699;28;657765;-70
2021/09/17 07:13:24;;;;;;;4.20;3.10;;;13.20;99.90;;;;;;4410421;28;657686;-70
2021/09/17 07:16:12;;;;;;;6.03;3.57;;;13.30;99.90;;;;;;4414636;28;656625;-71
2021/09/17 07:19:02;;;;;;;4.83;3.43;;;13.20;99.90;;;;;;4436312;28;657516;-70
2021/09/17 07:21:49;;;;;;;6.27;3.80;;;13.20;99.90;;;;;;4410112;28;657495;-70
2021/09/17 07:24:37;;;;;;;7.47;3.77;;;13.30;99.90;;;;;;4414419;28;656431;-70
2021/09/17 07:27:25;;;;;;;7.53;4.37;;;13.20;99.90;;;;;;4436734;28;657360;-70
2021/09/17 07:30:15;;;;;;;5.43;3.70;;;13.20;99.90;;;;;;4413920;28;656312;-70
2021/09/17 07:33:03;;;;;;;7.27;3.80;;;13.30;99.90;;;;;;4413693;28;656974;-70
2021/09/17 07:35:52;;;;;;;5.97;3.33;;;13.30;99.90;;;;;;4433200;28;656926;-70
2021/09/17 07:38:40;;;;;;;4.67;3.20;;;13.30;99.90;;;;;;4409801;28;657373;-70
2021/09/17 07:41:31;;;;;;;4.50;3.30;;;13.30;99.90;;;;;;4414366;28;656572;-70
2021/09/17 07:44:19;;;;;;;5.05;2.83;;;13.20;99.90;;;;;;4417274;28;657178;-70
2021/09/17 07:47:07;;;;;;;3.77;2.73;;;13.30;99.90;;;;;;4419261;28;656809;-70
2021/09/17 07:49:55;;;;;;;2.80;2.23;;;13.30;99.90;;;;;;4435839;28;657799;-70
2021/09/17 07:52:44;;;;;;;4.63;2.43;;;13.30;99.90;;;;;;4416745;28;656552;-70
2021/09/17 07:55:34;;;;;;;2.78;2.00;;;13.30;99.90;;;;;;4416700;28;656328;-70
2021/09/17 07:58:22;;;;;;;3.40;2.47;;;13.30;99.90;;;;;;4429985;28;656560;-70
2021/09/17 08:01:10;;;;;;;3.13;2.10;;;13.20;99.90;;;;;;4435752;28;658244;-70
2021/09/17 08:03:58;;;;;;;2.63;2.17;;;13.20;99.90;;;;;;4417014;28;656583;-70
2021/09/17 08:06:45;;;;;;;4.20;2.20;;;13.30;99.90;;;;;;4435718;28;657488;-70
2021/09/17 08:09:35;;;;;;;2.57;2.10;;;13.30;99.90;;;;;;4416391;28;657002;-70
2021/09/17 08:12:23;;;;;;;2.63;2.17;;;13.30;99.90;;;;;;4416811;28;657059;-70
2021/09/17 08:15:11;;;;;;;2.67;2.00;;;13.30;99.90;;;;;;4435531;28;656464;-70
2021/09/17 08:17:59;;;;;;;2.40;2.10;;;13.30;99.90;;;;;;4412443;28;658014;-70
2021/09/17 08:20:50;;;;;;;4.70;2.13;;;13.30;99.90;;;;;;4432799;28;656374;-70
2021/09/17 08:23:38;;;;;;;2.60;2.20;;;13.30;99.90;;;;;;4416109;28;656488;-70
2021/09/17 08:26:28;;;;;;;4.63;1.90;;;13.40;99.90;;;;;;4435620;28;657373;-69
2021/09/17 08:29:16;;;;;;;2.30;1.80;;;13.40;99.90;;;;;;4412545;28;657368;-70
2021/09/17 08:32:04;;;;;;;2.67;1.80;;;13.40;99.90;;;;;;4412457;28;656491;-70
2021/09/17 08:34:52;;;;;;;4.50;2.00;;;13.50;99.90;;;;;;4424185;28;656759;-70
2021/09/17 08:37:40;;;;;;;2.77;1.80;;;13.60;99.90;;;;;;4435227;28;658094;-70
2021/09/17 08:40:29;;;;;;;2.97;1.70;;;13.60;99.90;;;;;;4414170;28;656446;-70
2021/09/17 08:43:19;;;;;;;3.97;1.70;;;13.60;99.90;;;;;;4428479;28;656502;-70
2021/09/17 08:46:07;;;;;;;4.30;1.93;;;13.60;99.90;;;;;;4430420;28;656811;-70
2021/09/17 08:48:55;;;;;;;2.73;1.83;;;13.60;99.90;;;;;;4438276;28;656912;-70
2021/09/17 08:51:43;;;;;;;2.57;1.70;;;13.70;99.90;;;;;;4416068;28;656715;-70
2021/09/17 08:54:30;;;;;;;3.33;1.70;;;13.80;99.90;;;;;;4434352;28;657280;-70
2021/09/17 08:57:18;;;;;;;4.20;2.00;;;13.80;99.90;;;;;;4413925;28;657015;-70
2021/09/17 09:00:29;;;;;;;1.97;1.63;;;13.80;99.90;;;;;;4434695;28;657159;-70
2021/09/17 09:03:35;;;;;;;2.50;1.40;;;13.70;99.90;;;;;;4390590;28;657262;-70
2021/09/17 09:06:23;;;;;;;5.83;1.67;;;13.70;99.90;;;;;;4388884;28;657961;-70
2021/09/17 09:09:16;;;;;;;3.13;1.70;;;13.70;99.90;;;;;;4434791;28;656412;-69
2021/09/17 09:12:04;;;;;;;4.27;1.57;;;13.70;99.90;;;;;;4415467;28;656511;-70
2021/09/17 09:15:11;;;;;;;2.57;1.70;;;13.60;99.90;;;;;;4434086;28;657306;-70
2021/09/17 09:18:00;;;;;;;3.17;1.47;;;13.60;99.90;;;;;;4408517;28;657168;-70
2021/09/17 09:20:49;;;;;;;2.70;1.53;;;13.60;99.90;;;;;;4415600;28;656963;-69
2021/09/17 09:23:42;;;;;;;2.43;1.60;;;13.70;99.90;;;;;;4434372;28;656986;-70
2021/09/17 09:26:29;;;;;;;1.73;1.40;;;13.70;99.90;;;;;;4411225;28;657604;-69
2021/09/17 09:29:27;;;;;;;3.13;1.67;;;13.70;99.90;;;;;;4415511;28;656746;-70
2021/09/17 09:32:27;;;;;;;4.43;1.90;;;13.60;99.90;;;;;;4415808;28;657019;-69
2021/09/17 09:35:15;;;;;;;5.93;2.57;;;13.70;99.90;;;;;;4411088;28;657219;-70
2021/09/17 09:38:03;;;;;;;7.87;3.10;;;13.70;99.90;;;;;;4415430;28;656369;-70
2021/09/17 09:40:58;;;;;;;6.37;3.50;;;13.80;99.90;;;;;;4433626;28;656606;-70
2021/09/17 09:43:52;;;;;;;8.00;4.00;;;13.80;99.90;;;;;;4411032;28;657022;-70
2021/09/17 09:46:41;;;;;;;8.07;3.50;;;13.80;99.90;;;;;;4411090;28;657257;-70
2021/09/17 09:49:30;;;;;;;6.80;3.33;;;13.90;99.90;;;;;;4411127;28;658388;-69
2021/09/17 09:52:18;;;;;;;6.23;3.27;;;13.90;99.90;;;;;;4414891;28;656236;-70
2021/09/17 09:55:07;;;;;;;5.50;3.43;;;14.10;99.90;;;;;;4433884;28;655970;-70
2021/09/17 09:57:55;;;;;;;5.73;3.50;;;14.00;99.90;;;;;;4410828;28;657119;-70
2021/09/17 10:00:43;;;;;;;8.33;3.87;;;14.10;99.90;;;;;;4414003;28;656686;-70
2021/09/17 10:03:30;;;;;;;6.87;3.37;;;14.10;99.90;;;;;;4426698;28;656598;-69
2021/09/17 10:06:20;;;;;;;6.77;4.17;;;14.10;99.90;;;;;;4413121;28;656209;-70
2021/09/17 10:09:09;;;;;;;7.13;4.70;;;14.10;99.90;;;;;;4414654;28;656535;-70
2021/09/17 10:11:58;;;;;;;9.17;4.60;;;14.20;99.90;;;;;;4433393;28;656304;-70
2021/09/17 10:14:47;;;;;;;6.37;4.67;;;14.40;99.90;;;;;;4410723;28;657599;-70
2021/09/17 10:17:37;;;;;;;6.03;4.30;;;14.60;99.90;;;;;;4410884;28;657851;-70
2021/09/17 10:20:28;;;;;;;9.20;4.73;;;14.70;99.90;;;;;;4410929;28;657484;-70
2021/09/17 10:23:26;;;;;;;7.30;5.00;;;14.70;99.90;;;;;;4407519;28;656539;-70
2021/09/17 10:26:15;;;;;;;7.57;5.40;;;14.70;99.90;;;;;;4414631;28;657110;-70
2021/09/17 10:29:04;;;;;;;10.80;6.67;;;14.70;99.90;;;;;;4414612;28;656638;-70
2021/09/17 10:31:54;;;;;;;12.27;6.83;;;14.60;99.90;;;;;;4426288;28;658020;-70
2021/09/17 10:34:44;;;;;;;9.23;6.93;;;14.60;99.90;;;;;;4432292;28;657510;-69
2021/09/17 10:37:55;;;;;;;10.07;7.47;;;14.50;99.90;;;;;;4431724;28;656478;-70
2021/09/17 10:40:50;;;;;;;10.33;7.90;;;14.60;99.90;;;;;;4388121;28;657932;-70
2021/09/17 10:43:39;;;;;;;12.30;8.50;;;14.70;99.90;;;;;;4388747;28;657822;-70
2021/09/17 10:46:32;;;;;;;12.53;9.03;;;14.70;99.90;;;;;;4431982;28;657499;-70
2021/09/17 10:49:20;;;;;;;13.17;10.07;;;14.90;99.90;;;;;;4408895;28;658126;-69
2021/09/17 10:52:37;;;;;;;15.17;9.77;;;14.80;99.90;;;;;;4412095;28;659366;-69
2021/09/17 10:56:04;;;;;;;15.37;10.70;;;15.00;99.90;;;;;;4408346;28;657690;-70
2021/09/17 10:59:09;;;;;;;13.97;10.70;;;15.20;99.90;;;;;;4407736;28;658404;-69
2021/09/17 11:02:00;;;;;;;15.03;10.77;;;15.40;99.90;;;;;;4389050;28;658221;-70
2021/09/17 11:04:48;;;;;;;14.10;10.70;;;15.60;99.90;;;;;;4411937;28;658566;-70
2021/09/17 11:07:36;;;;;;;14.00;9.97;;;15.90;99.90;;;;;;4430985;28;658612;-70
2021/09/17 11:10:26;;;;;;;16.77;10.57;;;15.90;99.90;;;;;;4408751;28;659106;-69
2021/09/17 11:13:15;;;;;;;15.50;10.90;;;15.90;99.90;;;;;;4411745;28;660146;-70
2021/09/17 11:16:03;;;;;;;14.30;9.77;;;16.00;99.90;;;;;;4412082;28;658564;-70
2021/09/17 11:18:55;;;;;;;16.67;10.70;;;16.00;99.90;;;;;;4435295;28;657417;-69
2021/09/17 11:21:43;;;;;;;14.93;10.43;;;15.90;99.90;;;;;;4415210;28;658801;-69
2021/09/17 11:24:36;;;;;;;14.80;10.47;;;16.10;99.90;;;;;;4434061;28;659276;-70
2021/09/17 11:27:24;;;;;;;13.63;10.67;;;16.20;99.90;;;;;;4387985;28;659537;-69
2021/09/17 11:30:15;;;;;;;17.10;10.83;;;16.10;99.90;;;;;;4424538;28;658926;-69
2021/09/17 11:33:17;;;;;;;17.60;10.93;;;16.00;99.90;;;;;;4415120;28;658562;-70
2021/09/17 11:36:05;;;;;;;14.57;10.73;;;16.10;99.90;;;;;;4409649;28;658977;-69
2021/09/17 11:38:53;;;;;;;15.37;9.93;;;16.00;99.90;;;;;;4410326;28;658254;-69
2021/09/17 11:41:43;;;;;;;17.37;10.43;;;15.90;99.90;;;;;;4435182;28;657864;-69
2021/09/17 11:44:54;;;;;;;16.73;10.23;;;15.80;99.90;;;;;;4410111;28;659310;-69
2021/09/17 11:47:51;;;;;;;17.77;9.97;;;16.00;99.90;;;;;;4410667;28;658724;-69
2021/09/17 11:50:40;;;;;;;12.57;9.63;;;16.00;99.90;;;;;;4416158;28;657672;-69
2021/09/17 11:53:31;;;;;;;14.70;10.60;;;15.90;99.90;;;;;;4416069;28;657559;-69
2021/09/17 11:56:21;;;;;;;15.45;9.90;;;15.90;99.90;;;;;;4414833;28;659117;-69
2021/09/17 11:59:16;;;;;;;22.30;12.13;;;15.90;99.90;;;;;;4412037;28;659168;-69
2021/09/17 12:02:18;;;;;;;15.63;11.67;;;15.90;99.90;;;;;;4410577;28;659765;-69
2021/09/17 12:05:17;;;;;;;20.63;12.97;;;15.90;99.90;;;;;;4410206;28;659030;-69
2021/09/17 12:08:07;;;;;;;21.00;13.30;;;15.90;99.90;;;;;;4410306;28;659498;-69
2021/09/17 12:11:05;;;;;;;19.63;13.70;;;16.00;99.90;;;;;;4409654;28;659994;-69
2021/09/17 12:13:56;;;;;;;21.00;13.53;;;16.30;99.90;;;;;;4388620;28;659067;-69
2021/09/17 12:16:46;;;;;;;19.87;14.13;;;16.40;99.90;;;;;;4414222;28;659359;-69
2021/09/17 12:19:56;;;;;;;21.03;14.20;;;16.30;99.90;;;;;;4410002;28;659572;-69
2021/09/17 12:22:47;;;;;;;24.97;15.20;;;16.30;99.90;;;;;;4387121;28;659224;-69
2021/09/17 12:25:35;;;;;;;21.70;15.70;;;16.30;99.90;;;;;;4410128;28;659445;-69
2021/09/17 12:28:24;;;;;;;27.10;16.50;;;16.50;99.90;;;;;;4413216;28;659055;-69
2021/09/17 12:31:11;;;;;;;19.53;14.13;;;16.60;99.90;;;;;;4433047;28;658501;-69
2021/09/17 12:34:06;;;;;;;25.60;15.63;;;16.60;99.90;;;;;;4414268;28;658895;-69
2021/09/17 12:36:56;;;;;;;20.57;13.60;;;16.30;99.90;;;;;;4414076;28;658953;-69
2021/09/17 12:39:46;;;;;;;17.53;12.90;;;16.30;99.90;;;;;;4413810;28;659097;-69
2021/09/17 12:42:33;;;;;;;23.60;13.90;;;16.40;99.90;;;;;;4413634;28;658867;-69
2021/09/17 12:45:21;;;;;;;24.63;14.03;;;16.50;99.90;;;;;;4433103;28;659183;-69
2021/09/17 12:48:09;;;;;;;20.77;15.00;;;16.60;99.90;;;;;;4409747;28;659253;-69
2021/09/17 12:50:57;;;;;;;19.93;15.37;;;16.70;99.90;;;;;;4413355;28;658227;-69
2021/09/17 12:53:48;;;;;;;19.50;14.33;;;17.10;99.90;;;;;;4432709;28;659430;-69
2021/09/17 12:56:37;;;;;;;21.00;15.43;;;17.30;99.90;;;;;;4409378;28;659475;-69
2021/09/17 12:59:25;;;;;;;21.60;13.97;;;17.20;99.90;;;;;;4409613;28;658844;-69
2021/09/17 13:02:13;;;;;;;21.17;15.57;;;17.30;99.90;;;;;;4413407;28;658707;-69
2021/09/17 13:05:01;;;;;;;22.23;14.60;;;17.10;99.90;;;;;;4431826;28;658973;-69
2021/09/17 13:07:49;;;;;;;20.90;13.90;;;17.10;99.90;;;;;;4409546;28;658801;-69
2021/09/17 13:11:07;;;;;;;20.03;14.93;;;16.70;99.90;;;;;;4416110;28;658637;-69
2021/09/17 13:13:57;;;;;;;22.87;15.50;;;16.40;99.90;;;;;;4386336;28;659148;-69
2021/09/17 13:16:47;;;;;;;22.57;15.37;;;16.20;99.90;;;;;;4409392;28;658885;-69
2021/09/17 13:19:39;;;;;;;23.17;16.17;;;16.00;99.90;;;;;;4409456;28;659583;-69
2021/09/17 13:22:31;;;;;;;27.57;18.07;;;15.80;99.90;;;;;;4394188;28;658805;-69
2021/09/17 13:25:22;;;;;;;25.07;17.27;;;15.70;99.90;;;;;;4409009;28;659453;-69
2021/09/17 13:28:15;;;;;;;23.87;16.33;;;15.70;99.90;;;;;;4409044;28;659184;-69
2021/09/17 13:31:11;;;;;;;26.57;17.57;;;15.60;99.90;;;;;;4385805;28;660051;-69
2021/09/17 13:34:04;;;;;;;25.57;17.50;;;15.50;99.90;;;;;;4408802;28;658915;-69
2021/09/17 13:37:00;;;;;;;25.80;16.93;;;15.40;99.90;;;;;;4408866;28;658686;-69
2021/09/17 13:39:53;;;;;;;25.40;17.40;;;15.30;99.90;;;;;;4412761;28;658863;-69
2021/09/17 13:42:41;;;;;;;27.20;18.20;;;15.30;99.90;;;;;;4408096;28;658546;-70
2021/09/17 13:45:29;;;;;;;25.90;17.47;;;15.30;99.90;;;;;;4394512;28;660402;-70
2021/09/17 13:48:19;;;;;;;28.30;18.43;;;15.20;99.90;;;;;;4425526;28;658696;-70
2021/09/17 13:51:07;;;;;;;29.30;18.50;;;15.10;99.90;;;;;;4412457;28;658732;-69
2021/09/17 13:54:01;;;;;;;23.97;17.20;;;15.10;99.90;;;;;;4431921;28;659791;-70
2021/09/17 13:56:50;;;;;;;26.33;18.07;;;15.10;99.90;;;;;;4389839;28;659055;-69
2021/09/17 13:59:41;;;;;;;27.50;18.37;;;15.20;99.90;;;;;;4412270;28;659127;-69
2021/09/17 14:02:33;;;;;;;27.13;17.13;;;15.30;99.90;;;;;;4408322;28;659754;-69
2021/09/17 14:05:36;;;;;;;24.97;16.67;;;15.40;99.90;;;;;;4407696;28;658902;-70
2021/09/17 14:08:27;;;;;;;22.03;14.90;;;15.60;99.90;;;;;;4385256;28;658873;-69
2021/09/17 14:11:20;;;;;;;20.63;13.80;;;15.70;99.90;;;;;;4395892;28;659964;-69
2021/09/17 14:14:12;;;;;;;23.27;13.40;;;16.00;99.90;;;;;;4394614;28;658439;-69
2021/09/17 14:17:05;;;;;;;16.13;12.00;;;16.20;99.90;;;;;;4388806;28;659254;-69
2021/09/17 14:19:57;;;;;;;17.10;11.93;;;16.30;99.90;;;;;;4369022;28;659544;-69
2021/09/17 14:22:46;;;;;;;15.67;11.10;;;16.40;99.90;;;;;;4389019;28;659312;-69